Time;durP1;ratioP1;P1;durP2;ratioP2;P2;SDS_P1;SDS_P2;PMS_P1;PMS_P2;Temp;Humidity;BMP_temperature;BMP_pressure;BME280_temperature;BME280_humidity;BME280_pressure;Samples;Min_cycle;Max_cycle;Signal;HPM_P1;HPM_P2
2021/12/22 00:01:06;;;;;;;86.47;51.20;;;22.20;94.90;;;;;;4204269;28;20048;-69
2021/12/22 00:03:21;;;;;;;91.60;53.13;;;22.20;95.20;;;;;;4198639;28;20127;-68
2021/12/22 00:05:30;;;;;;;94.80;54.50;;;22.20;95.00;;;;;;4210844;28;20044;-68
2021/12/22 00:07:36;;;;;;;96.47;53.38;;;22.30;95.00;;;;;;4206289;28;20467;-68
2021/12/22 00:09:42;;;;;;;87.82;51.78;;;22.30;94.90;;;;;;4197656;28;20513;-71
2021/12/22 00:11:49;;;;;;;77.03;47.15;;;22.30;94.90;;;;;;4199293;28;20045;-69
2021/12/22 00:13:54;;;;;;;73.25;47.33;;;22.30;94.80;;;;;;4208719;28;20036;-69
2021/12/22 00:15:59;;;;;;;70.30;46.45;;;22.30;94.80;;;;;;4213924;28;20502;-70
2021/12/22 00:18:08;;;;;;;74.20;44.05;;;22.40;94.70;;;;;;4205283;28;20028;-69
2021/12/22 00:20:13;;;;;;;71.53;43.50;;;22.40;94.50;;;;;;4195698;28;20059;-70
2021/12/22 00:22:17;;;;;;;77.07;45.05;;;22.50;94.40;;;;;;4208293;28;20458;-69
2021/12/22 00:24:23;;;;;;;74.80;47.50;;;22.50;94.40;;;;;;4199955;28;20040;-71
2021/12/22 00:26:28;;;;;;;76.22;48.13;;;22.50;94.50;;;;;;4204995;28;20051;-70
2021/12/22 00:28:33;;;;;;;77.82;48.28;;;22.50;94.30;;;;;;4202243;28;20049;-70
2021/12/22 00:30:38;;;;;;;93.30;59.08;;;22.60;94.10;;;;;;4198604;28;20040;-70
2021/12/22 00:32:50;;;;;;;117.70;75.68;;;22.60;94.00;;;;;;4209143;28;20040;-71
2021/12/22 00:34:56;;;;;;;104.00;69.00;;;22.70;94.10;;;;;;4199627;28;20071;-71
2021/12/22 00:37:07;;;;;;;72.95;47.70;;;22.70;94.10;;;;;;4194929;28;20063;-71
2021/12/22 00:39:11;;;;;;;65.05;42.80;;;22.70;94.00;;;;;;4198548;28;20048;-71
2021/12/22 00:41:15;;;;;;;66.68;44.38;;;22.70;94.20;;;;;;4195639;28;20210;-71
2021/12/22 00:43:20;;;;;;;64.18;41.85;;;22.60;94.10;;;;;;4192811;28;20048;-71
2021/12/22 00:45:27;;;;;;;62.88;41.10;;;22.60;94.10;;;;;;4209464;28;20044;-71
2021/12/22 00:47:33;;;;;;;56.45;38.83;;;22.60;94.10;;;;;;4200098;28;20578;-70
2021/12/22 00:49:37;;;;;;;69.55;41.10;;;22.60;94.10;;;;;;4201824;28;20417;-70
2021/12/22 00:51:41;;;;;;;65.75;42.63;;;22.60;94.00;;;;;;4186003;28;20045;-71
2021/12/22 00:53:46;;;;;;;65.90;41.22;;;22.50;94.30;;;;;;4191533;28;20064;-71
2021/12/22 00:55:51;;;;;;;65.13;40.65;;;22.50;94.20;;;;;;4183613;28;20051;-70
2021/12/22 00:57:55;;;;;;;73.80;42.55;;;22.60;94.40;;;;;;4194215;28;20110;-71
2021/12/22 01:00:00;;;;;;;68.97;42.70;;;22.60;94.30;;;;;;4190054;28;20414;-70
2021/12/22 01:02:08;;;;;;;75.45;46.00;;;22.60;94.20;;;;;;4191874;28;20056;-68
2021/12/22 01:04:12;;;;;;;94.70;51.03;;;22.50;94.30;;;;;;4190519;28;20057;-74
2021/12/22 01:06:17;;;;;;;85.18;53.40;;;22.60;94.50;;;;;;4186196;28;20426;-73
2021/12/22 01:08:22;;;;;;;103.82;59.00;;;22.40;94.80;;;;;;4187151;28;20044;-72
2021/12/22 01:10:28;;;;;;;98.32;57.70;;;22.40;94.90;;;;;;4189147;28;20088;-71
2021/12/22 01:12:32;;;;;;;99.72;59.38;;;22.40;95.20;;;;;;4188249;28;20071;-72
2021/12/22 01:14:38;;;;;;;92.03;56.10;;;22.50;94.90;;;;;;4193641;28;20364;-70
2021/12/22 01:16:47;;;;;;;98.13;59.92;;;22.50;94.70;;;;;;4189084;28;20494;-68
2021/12/22 01:18:52;;;;;;;97.63;57.70;;;22.50;95.00;;;;;;4185642;28;20041;-69
2021/12/22 01:21:13;;;;;;;92.45;56.75;;;22.60;95.10;;;;;;4186920;28;20080;-69
2021/12/22 01:23:20;;;;;;;89.00;52.33;;;22.60;94.70;;;;;;4189820;28;20432;-69
2021/12/22 01:25:24;;;;;;;71.45;46.60;;;22.60;94.60;;;;;;4192130;28;20040;-69
2021/12/22 01:27:34;;;;;;;68.53;44.55;;;22.70;94.30;;;;;;4188785;28;20513;-70
2021/12/22 01:29:39;;;;;;;68.05;44.13;;;22.70;94.40;;;;;;4191563;28;20204;-70
2021/12/22 01:31:49;;;;;;;69.45;42.47;;;22.70;94.40;;;;;;4186817;28;20052;-70
2021/12/22 01:33:54;;;;;;;70.75;42.72;;;22.80;94.00;;;;;;4188074;28;20041;-69
2021/12/22 01:35:58;;;;;;;63.30;43.00;;;22.90;94.10;;;;;;4189042;28;20047;-70
2021/12/22 01:38:03;;;;;;;67.82;42.83;;;22.90;94.20;;;;;;4188936;28;20045;-68
2021/12/22 01:40:08;;;;;;;63.78;42.20;;;23.00;94.10;;;;;;4189058;28;20375;-68
2021/12/22 01:42:12;;;;;;;60.25;40.22;;;23.10;94.00;;;;;;4190436;28;20048;-69
2021/12/22 01:44:46;;;;;;;61.60;37.70;;;23.20;93.80;;;;;;4190879;28;20051;-69
2021/12/22 01:49:17;;;;;;;60.75;38.03;;;23.30;93.50;;;;;;4186485;28;20052;-69
2021/12/22 01:51:21;;;;;;;53.90;37.08;;;23.40;93.50;;;;;;4188099;28;20044;-70
2021/12/22 01:53:46;;;;;;;46.58;32.85;;;23.50;93.20;;;;;;4185866;28;20791;-71
2021/12/22 01:58:17;;;;;;;48.83;32.20;;;23.50;93.30;;;;;;4191058;28;20532;-71
2021/12/22 02:00:22;;;;;;;52.72;32.17;;;23.50;93.20;;;;;;4188671;28;20141;-71
2021/12/22 02:02:27;;;;;;;47.75;32.95;;;23.50;93.10;;;;;;4191745;28;20048;-69
2021/12/22 02:04:32;;;;;;;45.70;32.33;;;23.50;93.10;;;;;;4191468;28;20445;-69
2021/12/22 02:06:40;;;;;;;43.28;30.02;;;23.40;93.40;;;;;;4191207;28;20047;-69
2021/12/22 02:08:53;;;;;;;40.60;29.58;;;23.50;93.50;;;;;;4190381;28;20514;-69
2021/12/22 02:10:58;;;;;;;38.00;27.20;;;23.50;93.30;;;;;;4195110;28;20548;-68
2021/12/22 02:13:05;;;;;;;38.13;23.90;;;23.50;93.30;;;;;;4194184;28;20105;-67
2021/12/22 02:15:13;;;;;;;36.40;23.88;;;23.50;93.40;;;;;;4195858;28;20474;-70
2021/12/22 02:17:19;;;;;;;40.70;24.35;;;23.50;93.20;;;;;;4193581;28;20049;-68
2021/12/22 02:19:25;;;;;;;31.75;22.77;;;23.50;93.30;;;;;;4196667;28;20052;-67
2021/12/22 02:21:34;;;;;;;32.55;22.10;;;23.50;93.30;;;;;;4195343;28;20452;-69
2021/12/22 02:23:39;;;;;;;30.40;20.40;;;23.60;93.20;;;;;;4183832;28;20521;-68
2021/12/22 02:25:52;;;;;;;33.05;21.08;;;23.80;92.90;;;;;;4195940;28;20052;-67
2021/12/22 02:27:57;;;;;;;27.52;20.30;;;23.80;92.80;;;;;;4195074;28;20522;-71
2021/12/22 02:30:04;;;;;;;31.90;19.25;;;23.80;92.90;;;;;;4181133;28;20049;-70
2021/12/22 02:32:16;;;;;;;23.70;17.83;;;23.80;92.70;;;;;;4178904;28;20087;-70
2021/12/22 02:34:20;;;;;;;24.67;19.17;;;23.90;92.70;;;;;;4187336;28;20044;-70
2021/12/22 02:36:29;;;;;;;26.42;18.90;;;23.90;92.50;;;;;;4194210;28;20048;-70
2021/12/22 02:38:38;;;;;;;29.23;18.08;;;24.00;92.40;;;;;;4192255;28;20040;-72
2021/12/22 02:40:48;;;;;;;20.58;15.45;;;24.00;92.20;;;;;;4194802;28;20059;-69
2021/12/22 02:43:03;;;;;;;18.35;14.90;;;24.00;92.00;;;;;;4194531;28;20049;-71
2021/12/22 02:45:15;;;;;;;18.35;13.38;;;24.10;91.80;;;;;;4194670;28;20052;-71
2021/12/22 02:47:23;;;;;;;22.10;13.85;;;24.10;91.90;;;;;;4195650;28;20099;-72
2021/12/22 02:49:28;;;;;;;18.27;14.85;;;24.10;91.80;;;;;;4183609;28;20083;-71
2021/12/22 02:51:37;;;;;;;19.65;14.15;;;24.20;91.60;;;;;;4189308;28;20037;-71
2021/12/22 02:56:11;;;;;;;22.38;15.65;;;24.30;91.30;;;;;;4195597;28;20048;-72
2021/12/22 02:58:29;;;;;;;24.73;14.75;;;24.40;91.30;;;;;;4195875;28;20068;-72
2021/12/22 03:00:48;;;;;;;20.80;14.57;;;24.40;91.40;;;;;;4194991;28;20303;-71
2021/12/22 03:05:03;;;;;;;22.05;16.05;;;24.40;91.00;;;;;;4188794;28;20095;-71
2021/12/22 03:07:16;;;;;;;21.80;15.68;;;24.40;91.10;;;;;;4190019;28;20062;-72
2021/12/22 03:09:27;;;;;;;24.75;16.75;;;24.50;91.30;;;;;;4192375;28;20049;-72
2021/12/22 03:11:33;;;;;;;22.70;17.45;;;24.50;91.00;;;;;;4193332;28;20070;-71
2021/12/22 03:13:37;;;;;;;23.25;16.83;;;24.40;90.90;;;;;;4192549;28;20049;-71
2021/12/22 03:15:42;;;;;;;23.40;17.65;;;24.50;90.80;;;;;;4195127;28;20040;-72
2021/12/22 03:17:48;;;;;;;21.08;16.40;;;24.60;90.90;;;;;;4194135;28;20105;-72
2021/12/22 03:19:52;;;;;;;30.63;17.38;;;24.70;90.90;;;;;;4187343;28;20146;-72
2021/12/22 03:22:03;;;;;;;30.08;16.80;;;24.60;90.60;;;;;;4189820;28;20055;-72
2021/12/22 03:24:09;;;;;;;22.17;17.63;;;24.70;90.60;;;;;;4191664;28;20131;-72
2021/12/22 03:26:16;;;;;;;27.50;17.88;;;24.80;90.50;;;;;;4195432;28;20041;-72
2021/12/22 03:28:21;;;;;;;27.27;17.67;;;24.90;90.60;;;;;;4193341;28;20398;-71
2021/12/22 03:30:26;;;;;;;29.33;18.27;;;24.90;90.10;;;;;;4194940;28;20047;-71
2021/12/22 03:32:30;;;;;;;22.40;17.33;;;24.90;90.00;;;;;;4191491;28;20491;-72
2021/12/22 03:34:35;;;;;;;25.45;17.83;;;25.00;89.70;;;;;;4194478;28;20117;-72
2021/12/22 03:36:41;;;;;;;28.00;19.05;;;25.00;89.80;;;;;;4194279;28;20082;-72
2021/12/22 03:38:48;;;;;;;23.77;18.63;;;25.10;89.60;;;;;;4194185;28;20429;-70
2021/12/22 03:40:54;;;;;;;26.33;18.60;;;25.10;89.40;;;;;;4193010;28;20575;-71
2021/12/22 03:42:58;;;;;;;22.88;18.30;;;25.10;88.90;;;;;;4193055;28;20406;-73
2021/12/22 03:45:04;;;;;;;28.83;21.52;;;25.20;88.50;;;;;;4193889;28;20098;-73
2021/12/22 03:47:09;;;;;;;30.85;21.27;;;25.20;88.20;;;;;;4192028;28;20043;-72
2021/12/22 03:49:14;;;;;;;29.48;20.52;;;25.10;88.50;;;;;;4193026;28;20083;-72
2021/12/22 03:51:19;;;;;;;28.48;20.88;;;25.10;88.60;;;;;;4192197;28;20131;-72
2021/12/22 03:53:23;;;;;;;29.35;20.80;;;25.20;88.40;;;;;;4194536;28;20317;-71
2021/12/22 03:55:28;;;;;;;26.80;21.23;;;25.30;88.40;;;;;;4194061;28;20464;-72
2021/12/22 03:57:33;;;;;;;29.35;20.95;;;25.30;87.80;;;;;;4197208;28;20044;-71
2021/12/22 03:59:38;;;;;;;32.85;21.75;;;25.30;87.50;;;;;;4194450;28;20044;-71
2021/12/22 04:01:43;;;;;;;28.58;21.33;;;25.30;87.90;;;;;;4194859;28;20044;-71
2021/12/22 04:03:51;;;;;;;31.63;22.77;;;25.40;87.90;;;;;;4194715;28;20064;-71
2021/12/22 04:05:56;;;;;;;31.80;22.42;;;25.40;87.60;;;;;;4192729;28;20082;-71
2021/12/22 04:08:00;;;;;;;32.50;21.75;;;25.50;87.30;;;;;;4194739;28;20486;-72
2021/12/22 04:10:19;;;;;;;28.95;20.42;;;25.60;87.50;;;;;;4194005;28;20399;-72
2021/12/22 04:12:24;;;;;;;29.30;20.45;;;25.60;86.90;;;;;;4193610;28;20033;-72
2021/12/22 04:14:28;;;;;;;24.08;18.48;;;25.70;86.70;;;;;;4193084;28;20473;-72
2021/12/22 04:16:33;;;;;;;25.27;17.00;;;25.70;85.60;;;;;;4194420;28;20489;-72
2021/12/22 04:18:38;;;;;;;24.30;17.40;;;25.80;85.80;;;;;;4194664;28;20499;-72
2021/12/22 04:20:42;;;;;;;24.67;17.67;;;25.80;84.00;;;;;;4190185;28;20760;-71
2021/12/22 04:22:46;;;;;;;23.42;18.33;;;25.80;84.20;;;;;;4190879;28;20063;-71
2021/12/22 04:24:51;;;;;;;24.27;17.73;;;25.90;84.20;;;;;;4178678;28;20052;-73
2021/12/22 04:26:55;;;;;;;23.75;18.23;;;25.90;83.90;;;;;;4181223;28;20423;-72
2021/12/22 04:29:00;;;;;;;25.35;17.73;;;25.90;83.80;;;;;;4196677;28;20052;-72
2021/12/22 04:31:06;;;;;;;26.10;17.65;;;26.00;83.90;;;;;;4198012;28;20040;-71
2021/12/22 04:33:10;;;;;;;28.52;17.98;;;26.00;84.30;;;;;;4197203;28;20048;-72
2021/12/22 04:35:15;;;;;;;25.42;18.55;;;26.10;84.50;;;;;;4197991;28;20048;-72
2021/12/22 04:37:20;;;;;;;22.52;17.80;;;26.20;83.60;;;;;;4197548;28;20403;-72
2021/12/22 04:39:25;;;;;;;27.73;17.65;;;26.20;82.90;;;;;;4197559;28;20040;-72
2021/12/22 04:41:30;;;;;;;20.10;17.38;;;26.20;82.30;;;;;;4195903;28;20090;-72
2021/12/22 04:43:34;;;;;;;23.58;18.30;;;26.30;83.40;;;;;;4197705;28;20087;-72
2021/12/22 04:45:38;;;;;;;26.45;18.30;;;26.30;83.00;;;;;;4196784;28;20044;-72
2021/12/22 04:47:43;;;;;;;23.77;17.20;;;26.30;82.60;;;;;;4179577;28;20076;-71
2021/12/22 04:49:48;;;;;;;25.20;17.73;;;26.30;82.50;;;;;;4194374;28;20088;-71
2021/12/22 04:51:54;;;;;;;24.92;17.65;;;26.40;83.30;;;;;;4196095;28;20497;-70
2021/12/22 04:54:12;;;;;;;26.58;18.95;;;26.50;82.80;;;;;;4196557;28;20029;-71
2021/12/22 04:56:17;;;;;;;28.02;18.67;;;26.50;82.30;;;;;;4196407;28;20463;-71
2021/12/22 04:58:21;;;;;;;27.52;18.27;;;26.60;80.80;;;;;;4196222;28;20044;-71
2021/12/22 05:00:28;;;;;;;25.40;18.17;;;26.50;81.40;;;;;;4196409;28;20044;-70
2021/12/22 05:02:33;;;;;;;21.50;16.38;;;26.50;80.90;;;;;;4195133;28;20053;-70
2021/12/22 05:04:38;;;;;;;29.90;16.60;;;26.50;80.80;;;;;;4196898;28;20052;-71
2021/12/22 05:06:42;;;;;;;22.52;16.20;;;26.40;80.40;;;;;;4188900;28;20053;-71
2021/12/22 05:08:47;;;;;;;22.08;15.27;;;26.20;79.40;;;;;;4184421;28;20131;-71
2021/12/22 05:11:10;;;;;;;25.42;15.82;;;26.30;79.60;;;;;;4190398;28;20052;-71
2021/12/22 05:13:36;;;;;;;23.17;15.98;;;26.50;79.10;;;;;;4193357;28;20094;-71
2021/12/22 05:35:32;;;;;;;19.45;14.63;;;26.80;79.70;;;;;;4205474;27;20470;-66
2021/12/22 05:37:42;;;;;;;27.30;15.07;;;27.10;76.30;;;;;;4198509;28;20484;-66
2021/12/22 05:39:47;;;;;;;22.25;16.02;;;27.20;76.50;;;;;;4195121;28;20049;-66
2021/12/22 05:41:51;;;;;;;19.70;14.55;;;27.20;76.80;;;;;;4198960;28;20098;-66
2021/12/22 05:43:56;;;;;;;24.42;15.55;;;27.30;76.90;;;;;;4192477;28;20040;-67
2021/12/22 05:46:02;;;;;;;22.60;16.25;;;27.30;76.40;;;;;;4192763;28;20511;-66
2021/12/22 05:48:09;;;;;;;17.98;14.68;;;27.30;76.30;;;;;;4193517;28;20184;-68
2021/12/22 05:50:17;;;;;;;24.52;14.93;;;27.30;76.60;;;;;;4209809;28;20048;-68
2021/12/22 05:52:22;;;;;;;20.40;14.30;;;27.40;76.60;;;;;;4209678;28;20075;-67
2021/12/22 05:54:30;;;;;;;20.67;14.45;;;27.40;76.50;;;;;;4205529;28;20054;-65
2021/12/22 05:56:35;;;;;;;24.05;15.32;;;27.30;76.10;;;;;;4221144;28;20044;-69
2021/12/22 05:58:41;;;;;;;20.90;14.82;;;27.40;76.30;;;;;;4190262;28;20058;-69
2021/12/22 06:00:45;;;;;;;23.63;15.57;;;27.50;75.90;;;;;;4192032;28;20100;-70
2021/12/22 06:02:51;;;;;;;23.48;15.27;;;27.50;76.30;;;;;;4192764;28;20518;-70
2021/12/22 06:04:55;;;;;;;20.20;14.48;;;27.50;76.50;;;;;;4192699;28;20483;-70
2021/12/22 06:07:00;;;;;;;21.92;15.05;;;27.60;76.40;;;;;;4176000;28;20045;-70
2021/12/22 06:09:05;;;;;;;23.55;14.98;;;27.60;76.50;;;;;;4172977;28;20096;-70
2021/12/22 06:11:10;;;;;;;20.15;13.90;;;27.60;75.40;;;;;;4173508;28;20057;-69
2021/12/22 06:13:16;;;;;;;22.65;14.75;;;27.70;74.90;;;;;;4173644;28;20069;-69
2021/12/22 06:15:20;;;;;;;17.52;14.40;;;27.60;74.70;;;;;;4200401;28;20055;-69
2021/12/22 06:17:24;;;;;;;24.67;15.65;;;27.50;74.20;;;;;;4206756;28;20036;-69
2021/12/22 06:19:29;;;;;;;23.30;15.20;;;27.40;75.00;;;;;;4197945;28;20060;-69
2021/12/22 06:21:34;;;;;;;22.33;13.95;;;27.30;75.40;;;;;;4189769;28;20042;-68
2021/12/22 06:23:39;;;;;;;20.55;15.13;;;27.50;74.90;;;;;;4189226;28;20329;-68
2021/12/22 06:25:43;;;;;;;21.63;15.50;;;27.50;75.40;;;;;;4186357;28;20041;-68
2021/12/22 06:27:48;;;;;;;25.45;15.73;;;27.60;75.40;;;;;;4188939;28;20502;-70
2021/12/22 06:29:53;;;;;;;25.73;16.23;;;27.70;75.10;;;;;;4189322;28;20478;-69
2021/12/22 06:31:57;;;;;;;21.23;15.60;;;27.90;74.20;;;;;;4189234;28;20233;-70
2021/12/22 06:34:03;;;;;;;17.73;14.45;;;27.90;74.50;;;;;;4189342;28;20521;-69
2021/12/22 06:36:08;;;;;;;23.25;14.18;;;27.90;73.80;;;;;;4180419;28;20052;-70
2021/12/22 06:38:13;;;;;;;23.95;13.18;;;27.90;72.90;;;;;;4178299;28;20041;-69
2021/12/22 06:40:17;;;;;;;20.02;14.20;;;27.90;72.30;;;;;;4177365;28;20037;-69
2021/12/22 06:42:23;;;;;;;20.05;14.55;;;27.90;71.10;;;;;;4175818;28;20041;-69
2021/12/22 06:44:27;;;;;;;21.67;14.13;;;27.90;72.20;;;;;;4177913;28;20067;-69
2021/12/22 06:46:32;;;;;;;21.55;14.23;;;27.80;71.60;;;;;;4178189;28;20045;-68
2021/12/22 06:48:37;;;;;;;16.38;13.63;;;27.90;71.80;;;;;;4179393;28;20048;-68
2021/12/22 06:50:41;;;;;;;18.40;14.48;;;27.80;72.30;;;;;;4175501;28;20064;-68
2021/12/22 06:52:46;;;;;;;18.05;13.90;;;27.90;72.30;;;;;;4178042;28;20071;-68
2021/12/22 06:54:51;;;;;;;21.40;15.35;;;28.00;72.10;;;;;;4177758;28;20123;-69
2021/12/22 06:56:55;;;;;;;22.13;15.43;;;28.00;72.50;;;;;;4177911;28;20037;-69
2021/12/22 06:59:00;;;;;;;19.98;13.85;;;28.00;72.60;;;;;;4178126;28;20059;-69
2021/12/22 07:01:04;;;;;;;21.77;15.98;;;28.00;72.20;;;;;;4177914;28;20037;-69
2021/12/22 07:03:09;;;;;;;27.70;17.20;;;28.10;72.10;;;;;;4178483;28;20059;-69
2021/12/22 07:05:13;;;;;;;24.70;16.63;;;28.10;72.50;;;;;;4178368;28;20037;-70
2021/12/22 07:07:17;;;;;;;20.17;14.70;;;28.10;71.20;;;;;;4178368;28;20052;-68
2021/12/22 07:09:22;;;;;;;23.33;13.75;;;28.00;71.50;;;;;;4178069;28;20041;-68
2021/12/22 07:11:27;;;;;;;17.55;14.52;;;28.10;71.60;;;;;;4177931;28;20530;-69
2021/12/22 07:13:31;;;;;;;25.70;15.20;;;28.00;69.90;;;;;;4174554;28;20064;-68
2021/12/22 07:15:36;;;;;;;18.95;14.43;;;27.80;71.10;;;;;;4177879;28;20049;-69
2021/12/22 07:17:42;;;;;;;18.40;14.27;;;27.80;71.30;;;;;;4177845;28;20037;-68
2021/12/22 07:19:46;;;;;;;19.20;14.05;;;27.80;71.50;;;;;;4178535;28;20041;-68
2021/12/22 07:21:51;;;;;;;18.52;13.45;;;27.90;71.30;;;;;;4180546;28;20132;-68
2021/12/22 07:23:55;;;;;;;27.58;13.38;;;27.90;72.00;;;;;;4180448;28;20048;-68
2021/12/22 07:26:00;;;;;;;19.77;14.15;;;27.90;70.80;;;;;;4180005;28;20570;-68
2021/12/22 07:28:04;;;;;;;20.02;13.63;;;28.00;70.60;;;;;;4180750;28;20475;-69
2021/12/22 07:30:09;;;;;;;19.25;13.60;;;28.00;70.30;;;;;;4180487;28;20053;-68
2021/12/22 07:32:13;;;;;;;16.60;13.25;;;28.10;70.40;;;;;;4181112;28;20049;-69
2021/12/22 07:34:57;;;;;;;16.58;13.52;;;28.10;69.80;;;;;;4180467;28;20482;-69
2021/12/22 07:37:26;;;;;;;19.83;13.85;;;28.10;69.60;;;;;;4180571;28;20352;-69
2021/12/22 07:39:30;;;;;;;23.50;14.52;;;28.30;70.20;;;;;;4179481;28;20132;-69
2021/12/22 07:41:35;;;;;;;17.33;13.60;;;28.30;69.50;;;;;;4179903;28;20048;-70
2021/12/22 07:43:42;;;;;;;19.08;13.82;;;28.40;70.10;;;;;;4180527;28;20137;-69
2021/12/22 07:45:46;;;;;;;20.13;13.32;;;28.40;70.00;;;;;;4180053;28;20041;-69
2021/12/22 07:47:51;;;;;;;15.98;13.20;;;28.30;69.10;;;;;;4178655;28;20043;-69
2021/12/22 07:49:55;;;;;;;23.27;13.32;;;28.30;69.30;;;;;;4196047;28;20136;-69
2021/12/22 07:52:00;;;;;;;22.67;13.55;;;28.30;69.40;;;;;;4196684;28;20490;-69
2021/12/22 07:54:05;;;;;;;18.42;13.13;;;28.40;69.60;;;;;;4196221;28;20541;-68
2021/12/22 07:56:11;;;;;;;18.35;13.52;;;28.40;68.90;;;;;;4179750;28;20525;-69
2021/12/22 07:58:15;;;;;;;18.98;13.10;;;28.30;70.00;;;;;;4180135;28;20529;-70
2021/12/22 08:00:19;;;;;;;16.83;12.45;;;28.40;70.00;;;;;;4179697;28;20203;-68
2021/12/22 08:02:25;;;;;;;19.42;13.80;;;28.40;70.00;;;;;;4179987;28;20072;-69
2021/12/22 08:04:30;;;;;;;15.30;12.48;;;28.40;70.10;;;;;;4179453;28;20049;-69
2021/12/22 08:06:34;;;;;;;20.63;12.55;;;28.50;70.40;;;;;;4179968;28;20041;-69
2021/12/22 08:08:38;;;;;;;18.60;12.05;;;28.50;69.00;;;;;;4179867;28;20045;-68
2021/12/22 08:10:43;;;;;;;20.45;12.40;;;28.40;69.70;;;;;;4179024;28;20047;-69
2021/12/22 08:12:47;;;;;;;18.35;11.75;;;28.40;69.40;;;;;;4180003;28;20131;-69
2021/12/22 08:14:52;;;;;;;17.25;11.70;;;28.50;69.00;;;;;;4179668;28;20053;-70
2021/12/22 08:16:56;;;;;;;15.85;12.15;;;28.50;68.20;;;;;;4179834;28;20057;-70
2021/12/22 08:19:01;;;;;;;14.85;11.07;;;28.40;69.00;;;;;;4179508;28;20091;-69
2021/12/22 08:21:06;;;;;;;16.48;10.73;;;28.50;68.70;;;;;;4179765;28;20077;-70
2021/12/22 08:23:18;;;;;;;15.15;10.25;;;28.50;69.00;;;;;;4177368;28;20123;-72
2021/12/22 08:25:22;;;;;;;17.25;11.02;;;28.40;68.00;;;;;;4176430;28;20048;-70
2021/12/22 08:27:27;;;;;;;13.80;10.35;;;28.40;68.40;;;;;;4179358;28;20037;-68
2021/12/22 08:29:32;;;;;;;13.32;10.63;;;28.40;67.50;;;;;;4179597;28;20049;-71
2021/12/22 08:31:38;;;;;;;14.00;10.40;;;28.40;68.10;;;;;;4179588;28;20045;-71
2021/12/22 08:33:45;;;;;;;17.30;10.20;;;28.50;67.90;;;;;;4179251;28;20515;-69
2021/12/22 08:40:25;;;;;;;18.00;11.77;;;28.50;68.00;;;;;;4179239;28;20473;-71
2021/12/22 08:42:29;;;;;;;16.25;10.75;;;28.40;68.40;;;;;;4179205;28;20110;-69
2021/12/22 08:44:33;;;;;;;15.43;11.18;;;28.30;67.20;;;;;;4178846;28;20041;-70
2021/12/22 08:46:40;;;;;;;14.75;10.70;;;28.30;68.20;;;;;;4178689;28;20041;-70
2021/12/22 08:48:44;;;;;;;15.10;10.48;;;28.40;68.30;;;;;;4185412;28;20064;-69
2021/12/22 08:50:49;;;;;;;18.30;11.13;;;28.40;68.40;;;;;;4195685;28;20356;-70
2021/12/22 08:52:55;;;;;;;15.05;10.63;;;28.40;68.10;;;;;;4195596;28;20525;-71
2021/12/22 08:55:00;;;;;;;16.25;10.48;;;28.40;67.10;;;;;;4187548;28;20490;-71
2021/12/22 08:57:04;;;;;;;13.73;10.55;;;28.40;68.00;;;;;;4178997;28;20055;-70
2021/12/22 08:59:10;;;;;;;14.45;9.80;;;28.40;67.30;;;;;;4178838;28;20629;-70
2021/12/22 09:01:14;;;;;;;24.58;15.93;;;28.40;67.10;;;;;;4179074;28;20144;-70
2021/12/22 09:03:19;;;;;;;19.80;12.20;;;28.30;67.50;;;;;;4210676;28;20155;-69
2021/12/22 09:05:24;;;;;;;20.33;13.27;;;28.30;67.60;;;;;;4178634;28;20120;-70
2021/12/22 09:07:28;;;;;;;17.67;11.80;;;28.30;67.80;;;;;;4178924;28;20060;-70
2021/12/22 09:09:33;;;;;;;16.60;10.93;;;28.30;67.10;;;;;;4179064;28;20041;-69
2021/12/22 09:11:38;;;;;;;21.08;10.95;;;28.30;67.80;;;;;;4178685;28;20598;-69
2021/12/22 09:13:42;;;;;;;16.33;10.95;;;28.40;67.40;;;;;;4178869;28;20052;-71
2021/12/22 09:15:47;;;;;;;18.70;11.25;;;28.30;67.00;;;;;;4178903;28;20061;-70
2021/12/22 09:17:52;;;;;;;17.17;12.10;;;28.30;67.30;;;;;;4179181;28;20045;-70
2021/12/22 09:19:56;;;;;;;18.90;11.90;;;28.30;67.80;;;;;;4162524;28;20049;-69
2021/12/22 09:22:00;;;;;;;15.93;12.15;;;28.30;67.00;;;;;;4162133;28;20626;-70
2021/12/22 09:24:06;;;;;;;17.92;11.52;;;28.20;67.80;;;;;;4161621;28;20103;-70
2021/12/22 09:26:10;;;;;;;17.55;11.73;;;28.20;67.70;;;;;;4178308;28;20045;-72
2021/12/22 09:28:14;;;;;;;24.13;12.27;;;28.20;68.10;;;;;;4179189;28;20182;-71
2021/12/22 09:30:19;;;;;;;16.52;11.10;;;28.20;68.10;;;;;;4177346;28;20164;-70
2021/12/22 09:32:23;;;;;;;101.28;16.30;;;28.20;68.30;;;;;;4162493;28;20060;-70
2021/12/22 09:34:28;;;;;;;32.20;11.50;;;28.20;67.50;;;;;;4162256;28;20053;-71
2021/12/22 09:36:33;;;;;;;21.58;11.13;;;28.20;67.20;;;;;;4162171;28;20080;-71
2021/12/22 09:38:37;;;;;;;14.23;10.80;;;28.20;66.60;;;;;;4162412;28;20450;-70
2021/12/22 09:40:41;;;;;;;20.65;11.10;;;28.20;67.00;;;;;;4166938;28;20045;-71
2021/12/22 09:42:46;;;;;;;18.17;10.95;;;28.10;67.50;;;;;;4176139;28;20049;-71
2021/12/22 09:44:51;;;;;;;16.58;10.55;;;28.10;66.80;;;;;;4178671;28;20523;-69
2021/12/22 09:46:55;;;;;;;21.35;10.80;;;28.10;67.60;;;;;;4178526;28;20049;-71
2021/12/22 09:49:07;;;;;;;13.50;9.90;;;28.10;67.20;;;;;;4185654;28;20041;-69
2021/12/22 09:53:22;;;;;;;20.98;11.73;;;28.10;67.20;;;;;;4192725;28;20036;-70
2021/12/22 09:55:27;;;;;;;28.00;14.77;;;28.10;68.30;;;;;;4180322;28;20085;-70
2021/12/22 09:57:33;;;;;;;26.40;14.93;;;28.00;68.50;;;;;;4176333;28;20529;-70
2021/12/22 09:59:37;;;;;;;24.60;15.25;;;28.00;68.80;;;;;;4176313;28;20129;-70
2021/12/22 10:01:42;;;;;;;24.23;14.27;;;28.00;69.20;;;;;;4175555;28;20051;-72
2021/12/22 10:03:47;;;;;;;24.30;13.32;;;28.00;69.10;;;;;;4173930;28;20071;-70
2021/12/22 10:05:51;;;;;;;20.83;13.38;;;28.00;69.20;;;;;;4177704;28;20057;-71
2021/12/22 10:08:10;;;;;;;20.23;13.32;;;27.90;69.40;;;;;;4175264;28;20041;-70
2021/12/22 10:10:15;;;;;;;21.33;12.80;;;27.90;69.40;;;;;;4199016;28;20094;-72
2021/12/22 10:12:22;;;;;;;22.40;13.88;;;27.80;69.80;;;;;;4178133;28;20082;-72
2021/12/22 10:14:27;;;;;;;25.83;13.52;;;27.80;69.80;;;;;;4178541;28;20103;-71
2021/12/22 10:16:31;;;;;;;23.35;13.80;;;27.70;70.10;;;;;;4178548;28;20060;-69
2021/12/22 10:18:35;;;;;;;24.08;13.75;;;27.70;69.80;;;;;;4178609;28;20112;-68
2021/12/22 10:20:40;;;;;;;25.38;13.52;;;27.70;70.10;;;;;;4179834;28;20460;-68
2021/12/22 10:22:47;;;;;;;22.50;12.95;;;27.60;70.10;;;;;;4195997;28;20040;-68
2021/12/22 10:24:52;;;;;;;23.70;12.93;;;27.60;70.70;;;;;;4181049;28;20067;-70
2021/12/22 10:27:04;;;;;;;23.33;13.98;;;27.60;70.60;;;;;;4192869;28;20032;-69
2021/12/22 10:29:08;;;;;;;20.90;12.80;;;27.60;70.80;;;;;;4178024;28;20107;-69
2021/12/22 10:31:13;;;;;;;21.60;13.75;;;27.60;70.90;;;;;;4177614;28;20553;-70
2021/12/22 10:33:19;;;;;;;30.33;13.90;;;27.60;71.10;;;;;;4177556;28;20564;-69
2021/12/22 10:35:32;;;;;;;30.33;15.02;;;27.50;71.50;;;;;;4176287;28;20064;-70
2021/12/22 10:37:41;;;;;;;27.88;14.15;;;27.50;72.20;;;;;;4177857;28;20048;-69
2021/12/22 10:39:46;;;;;;;25.10;15.40;;;27.50;72.60;;;;;;4178829;28;20053;-69
2021/12/22 10:41:50;;;;;;;29.98;15.45;;;27.40;73.10;;;;;;4174695;28;20052;-69
2021/12/22 10:43:55;;;;;;;26.70;15.32;;;27.40;73.50;;;;;;4177345;28;20048;-70
2021/12/22 10:46:01;;;;;;;33.20;15.90;;;27.40;73.60;;;;;;4178734;28;20033;-71
2021/12/22 10:50:24;;;;;;;33.75;16.15;;;27.30;73.90;;;;;;4176308;28;20491;-70
2021/12/22 10:52:31;;;;;;;33.63;15.65;;;27.30;74.30;;;;;;4177857;28;20052;-70
2021/12/22 10:54:38;;;;;;;36.63;16.25;;;27.20;74.60;;;;;;4176501;28;20052;-69
2021/12/22 10:56:45;;;;;;;54.13;17.23;;;27.20;75.00;;;;;;4174085;28;20065;-71
2021/12/22 10:59:18;;;;;;;52.80;16.70;;;27.10;75.00;;;;;;4176395;28;20411;-70
2021/12/22 11:01:22;;;;;;;56.45;21.50;;;27.10;75.40;;;;;;4176829;28;20482;-70
2021/12/22 11:03:48;;;;;;;49.47;24.15;;;27.00;75.80;;;;;;4175401;28;20045;-69
2021/12/22 11:05:53;;;;;;;47.33;28.15;;;26.90;75.80;;;;;;4176090;28;20491;-69
2021/12/22 11:07:58;;;;;;;47.55;29.35;;;26.90;75.90;;;;;;4178158;28;20067;-69
2021/12/22 11:10:05;;;;;;;52.38;36.10;;;26.90;76.10;;;;;;4177415;28;20041;-70
2021/12/22 11:12:13;;;;;;;68.43;44.10;;;26.90;76.30;;;;;;4178027;28;20040;-70
2021/12/22 11:14:27;;;;;;;73.53;43.08;;;26.90;76.50;;;;;;4174316;28;20044;-70
2021/12/22 11:16:32;;;;;;;59.75;41.85;;;26.80;76.60;;;;;;4176304;28;20049;-70
2021/12/22 11:18:37;;;;;;;57.50;42.08;;;26.80;76.60;;;;;;4174916;28;20056;-70